sensor_id;sensor_type;location;lat;lon;timestamp;temperature;humidity
6307;DHT22;3186;54.062;9.962;2023-08-01T00:01:34;18.00;99.90
6307;DHT22;3186;54.062;9.962;2023-08-01T00:04:00;18.00;99.90
6307;DHT22;3186;54.062;9.962;2023-08-01T00:06:26;18.00;99.90
6307;DHT22;3186;54.062;9.962;2023-08-01T00:08:52;17.90;99.90
6307;DHT22;3186;54.062;9.962;2023-08-01T00:11:17;18.00;99.90
6307;DHT22;3186;54.062;9.962;2023-08-01T00:13:43;18.00;99.90
6307;DHT22;3186;54.062;9.962;2023-08-01T00:16:09;18.00;99.90
6307;DHT22;3186;54.062;9.962;2023-08-01T00:18:35;18.00;99.90
6307;DHT22;3186;54.062;9.962;2023-08-01T00:21:02;17.90;99.90
6307;DHT22;3186;54.062;9.962;2023-08-01T00:23:28;17.90;99.90
6307;DHT22;3186;54.062;9.962;2023-08-01T00:25:54;17.90;99.90
6307;DHT22;3186;54.062;9.962;2023-08-01T00:28:23;17.90;99.90
6307;DHT22;3186;54.062;9.962;2023-08-01T00:30:49;17.80;99.90
6307;DHT22;3186;54.062;9.962;2023-08-01T00:33:14;17.90;99.90
6307;DHT22;3186;54.062;9.962;2023-08-01T00:35:40;17.80;99.90
6307;DHT22;3186;54.062;9.962;2023-08-01T00:38:06;17.80;99.90
6307;DHT22;3186;54.062;9.962;2023-08-01T00:40:33;17.80;99.90
6307;DHT22;3186;54.062;9.962;2023-08-01T00:42:59;17.90;99.90
6307;DHT22;3186;54.062;9.962;2023-08-01T00:45:29;17.80;99.90
6307;DHT22;3186;54.062;9.962;2023-08-01T00:47:56;17.80;99.90
6307;DHT22;3186;54.062;9.962;2023-08-01T00:50:22;17.70;99.90
6307;DHT22;3186;54.062;9.962;2023-08-01T00:52:51;17.80;99.90
6307;DHT22;3186;54.062;9.962;2023-08-01T00:55:18;17.80;99.90
6307;DHT22;3186;54.062;9.962;2023-08-01T00:57:44;17.80;99.90
6307;DHT22;3186;54.062;9.962;2023-08-01T01:00:10;17.80;99.90
6307;DHT22;3186;54.062;9.962;2023-08-01T01:02:37;17.70;99.90
6307;DHT22;3186;54.062;9.962;2023-08-01T01:05:03;17.70;99.90
6307;DHT22;3186;54.062;9.962;2023-08-01T01:07:29;17.70;99.90
6307;DHT22;3186;54.062;9.962;2023-08-01T01:09:56;17.70;99.90
6307;DHT22;3186;54.062;9.962;2023-08-01T01:12:22;18.60;99.90
6307;DHT22;3186;54.062;9.962;2023-08-01T01:14:47;17.60;99.90
6307;DHT22;3186;54.062;9.962;2023-08-01T01:17:13;17.60;99.90
6307;DHT22;3186;54.062;9.962;2023-08-01T01:19:39;17.60;99.90
6307;DHT22;3186;54.062;9.962;2023-08-01T01:22:06;17.60;99.90
6307;DHT22;3186;54.062;9.962;2023-08-01T01:24:34;17.50;99.90
6307;DHT22;3186;54.062;9.962;2023-08-01T01:27:01;17.50;99.90
6307;DHT22;3186;54.062;9.962;2023-08-01T01:29:30;17.50;99.90
6307;DHT22;3186;54.062;9.962;2023-08-01T01:31:57;17.50;99.90
6307;DHT22;3186;54.062;9.962;2023-08-01T01:34:25;17.60;99.90
6307;DHT22;3186;54.062;9.962;2023-08-01T01:36:51;17.60;99.90
6307;DHT22;3186;54.062;9.962;2023-08-01T01:39:17;17.60;99.90
6307;DHT22;3186;54.062;9.962;2023-08-01T01:41:43;17.60;99.90
6307;DHT22;3186;54.062;9.962;2023-08-01T01:44:09;17.60;99.90
6307;DHT22;3186;54.062;9.962;2023-08-01T01:46:35;17.60;99.90
6307;DHT22;3186;54.062;9.962;2023-08-01T01:49:01;17.60;99.90
6307;DHT22;3186;54.062;9.962;2023-08-01T01:51:27;17.50;99.90
6307;DHT22;3186;54.062;9.962;2023-08-01T01:53:53;17.50;99.90
6307;DHT22;3186;54.062;9.962;2023-08-01T01:56:19;17.50;99.90
6307;DHT22;3186;54.062;9.962;2023-08-01T01:58:45;17.50;99.90
6307;DHT22;3186;54.062;9.962;2023-08-01T02:01:11;17.50;99.90
6307;DHT22;3186;54.062;9.962;2023-08-01T02:03:37;17.50;99.90
6307;DHT22;3186;54.062;9.962;2023-08-01T02:06:03;17.50;99.90
6307;DHT22;3186;54.062;9.962;2023-08-01T02:08:30;17.50;99.90
6307;DHT22;3186;54.062;9.962;2023-08-01T02:10:55;17.50;99.90
6307;DHT22;3186;54.062;9.962;2023-08-01T02:13:28;17.50;99.90
6307;DHT22;3186;54.062;9.962;2023-08-01T02:15:54;17.50;99.90
6307;DHT22;3186;54.062;9.962;2023-08-01T02:18:20;17.50;99.90
6307;DHT22;3186;54.062;9.962;2023-08-01T02:20:46;17.50;99.90
6307;DHT22;3186;54.062;9.962;2023-08-01T02:23:12;17.50;99.90
6307;DHT22;3186;54.062;9.962;2023-08-01T02:25:41;17.50;99.90
6307;DHT22;3186;54.062;9.962;2023-08-01T02:28:08;17.40;99.90
6307;DHT22;3186;54.062;9.962;2023-08-01T02:30:36;17.50;99.90
6307;DHT22;3186;54.062;9.962;2023-08-01T02:33:02;17.50;99.90
6307;DHT22;3186;54.062;9.962;2023-08-01T02:35:29;17.50;99.90
6307;DHT22;3186;54.062;9.962;2023-08-01T02:37:55;17.40;99.90
6307;DHT22;3186;54.062;9.962;2023-08-01T02:40:21;17.50;99.90
6307;DHT22;3186;54.062;9.962;2023-08-01T02:42:47;17.40;99.90
6307;DHT22;3186;54.062;9.962;2023-08-01T02:45:13;17.40;99.90
6307;DHT22;3186;54.062;9.962;2023-08-01T02:47:38;17.40;99.90
6307;DHT22;3186;54.062;9.962;2023-08-01T02:50:05;17.30;99.90
6307;DHT22;3186;54.062;9.962;2023-08-01T02:52:31;17.40;99.90
6307;DHT22;3186;54.062;9.962;2023-08-01T02:54:57;17.40;99.90
6307;DHT22;3186;54.062;9.962;2023-08-01T02:57:23;17.30;99.90
6307;DHT22;3186;54.062;9.962;2023-08-01T02:59:49;17.30;99.90
6307;DHT22;3186;54.062;9.962;2023-08-01T03:02:16;17.30;99.90
6307;DHT22;3186;54.062;9.962;2023-08-01T03:04:42;17.30;99.90
6307;DHT22;3186;54.062;9.962;2023-08-01T03:07:08;17.20;99.90
6307;DHT22;3186;54.062;9.962;2023-08-01T03:09:34;17.20;99.90
6307;DHT22;3186;54.062;9.962;2023-08-01T03:11:59;17.20;99.90
6307;DHT22;3186;54.062;9.962;2023-08-01T03:14:25;17.20;99.90
6307;DHT22;3186;54.062;9.962;2023-08-01T03:16:51;17.20;99.90
6307;DHT22;3186;54.062;9.962;2023-08-01T03:19:17;17.10;99.90
6307;DHT22;3186;54.062;9.962;2023-08-01T03:21:43;17.20;99.90
6307;DHT22;3186;54.062;9.962;2023-08-01T03:24:09;17.10;99.90
6307;DHT22;3186;54.062;9.962;2023-08-01T03:26:35;17.10;99.90
6307;DHT22;3186;54.062;9.962;2023-08-01T03:29:01;17.10;99.90
6307;DHT22;3186;54.062;9.962;2023-08-01T03:31:28;17.30;99.90
6307;DHT22;3186;54.062;9.962;2023-08-01T03:33:53;17.30;99.90
6307;DHT22;3186;54.062;9.962;2023-08-01T03:36:19;17.30;99.90
6307;DHT22;3186;54.062;9.962;2023-08-01T03:38:46;17.30;99.90
6307;DHT22;3186;54.062;9.962;2023-08-01T03:41:12;17.30;99.90
6307;DHT22;3186;54.062;9.962;2023-08-01T03:43:38;17.30;99.90
6307;DHT22;3186;54.062;9.962;2023-08-01T03:46:06;17.40;99.90
6307;DHT22;3186;54.062;9.962;2023-08-01T03:48:32;17.40;99.90
6307;DHT22;3186;54.062;9.962;2023-08-01T03:50:58;17.40;99.90
6307;DHT22;3186;54.062;9.962;2023-08-01T03:53:26;17.30;99.90
6307;DHT22;3186;54.062;9.962;2023-08-01T03:55:51;17.30;99.90
6307;DHT22;3186;54.062;9.962;2023-08-01T03:58:17;17.30;99.90
6307;DHT22;3186;54.062;9.962;2023-08-01T04:00:43;17.30;99.90
6307;DHT22;3186;54.062;9.962;2023-08-01T04:03:09;17.20;99.90
6307;DHT22;3186;54.062;9.962;2023-08-01T04:05:34;17.20;99.90
6307;DHT22;3186;54.062;9.962;2023-08-01T04:08:01;17.30;99.90
6307;DHT22;3186;54.062;9.962;2023-08-01T04:10:27;17.30;99.90
6307;DHT22;3186;54.062;9.962;2023-08-01T04:12:52;17.30;99.90
6307;DHT22;3186;54.062;9.962;2023-08-01T04:15:18;17.30;99.90
6307;DHT22;3186;54.062;9.962;2023-08-01T04:17:44;17.40;99.90
6307;DHT22;3186;54.062;9.962;2023-08-01T04:20:10;17.30;99.90
6307;DHT22;3186;54.062;9.962;2023-08-01T04:22:36;17.30;99.90
6307;DHT22;3186;54.062;9.962;2023-08-01T04:25:02;17.40;99.90
6307;DHT22;3186;54.062;9.962;2023-08-01T04:27:28;17.30;99.90
6307;DHT22;3186;54.062;9.962;2023-08-01T04:29:55;17.30;99.90
6307;DHT22;3186;54.062;9.962;2023-08-01T04:32:21;17.30;99.90
6307;DHT22;3186;54.062;9.962;2023-08-01T04:34:47;17.30;99.90
6307;DHT22;3186;54.062;9.962;2023-08-01T04:37:13;17.30;99.90
6307;DHT22;3186;54.062;9.962;2023-08-01T04:39:39;17.30;99.90
6307;DHT22;3186;54.062;9.962;2023-08-01T04:42:05;17.40;99.90
6307;DHT22;3186;54.062;9.962;2023-08-01T04:44:32;17.40;99.90
6307;DHT22;3186;54.062;9.962;2023-08-01T04:46:58;17.30;99.90
6307;DHT22;3186;54.062;9.962;2023-08-01T04:49:24;17.30;99.90
6307;DHT22;3186;54.062;9.962;2023-08-01T04:51:50;17.30;99.90
6307;DHT22;3186;54.062;9.962;2023-08-01T04:54:16;17.30;99.90
6307;DHT22;3186;54.062;9.962;2023-08-01T04:56:42;17.30;99.90
6307;DHT22;3186;54.062;9.962;2023-08-01T04:59:08;17.30;99.90
6307;DHT22;3186;54.062;9.962;2023-08-01T05:01:34;17.30;99.90
6307;DHT22;3186;54.062;9.962;2023-08-01T05:03:59;17.30;99.90
6307;DHT22;3186;54.062;9.962;2023-08-01T05:06:25;17.30;99.90
6307;DHT22;3186;54.062;9.962;2023-08-01T05:08:53;17.30;99.90
6307;DHT22;3186;54.062;9.962;2023-08-01T05:11:19;17.30;99.90
6307;DHT22;3186;54.062;9.962;2023-08-01T05:13:45;17.30;99.90
6307;DHT22;3186;54.062;9.962;2023-08-01T05:16:11;17.30;99.90
6307;DHT22;3186;54.062;9.962;2023-08-01T05:18:37;17.30;99.90
6307;DHT22;3186;54.062;9.962;2023-08-01T05:21:03;17.30;99.90
6307;DHT22;3186;54.062;9.962;2023-08-01T05:23:29;17.30;99.90
6307;DHT22;3186;54.062;9.962;2023-08-01T05:25:55;17.30;99.90
6307;DHT22;3186;54.062;9.962;2023-08-01T05:28:20;17.40;99.90
6307;DHT22;3186;54.062;9.962;2023-08-01T05:30:47;17.40;99.90
6307;DHT22;3186;54.062;9.962;2023-08-01T05:33:13;17.30;99.90
6307;DHT22;3186;54.062;9.962;2023-08-01T05:35:38;17.40;99.90
6307;DHT22;3186;54.062;9.962;2023-08-01T05:38:04;17.40;99.90
6307;DHT22;3186;54.062;9.962;2023-08-01T05:40:30;17.40;99.90
6307;DHT22;3186;54.062;9.962;2023-08-01T05:42:56;17.40;99.90
6307;DHT22;3186;54.062;9.962;2023-08-01T05:45:21;17.40;99.90
6307;DHT22;3186;54.062;9.962;2023-08-01T05:47:47;17.40;99.90
6307;DHT22;3186;54.062;9.962;2023-08-01T05:50:13;17.40;99.90
6307;DHT22;3186;54.062;9.962;2023-08-01T05:52:39;17.40;99.90
6307;DHT22;3186;54.062;9.962;2023-08-01T05:55:06;17.40;99.90
6307;DHT22;3186;54.062;9.962;2023-08-01T05:57:32;17.30;99.90
6307;DHT22;3186;54.062;9.962;2023-08-01T05:59:57;17.40;99.90
6307;DHT22;3186;54.062;9.962;2023-08-01T06:02:23;17.40;99.90
6307;DHT22;3186;54.062;9.962;2023-08-01T06:04:49;17.40;99.90
6307;DHT22;3186;54.062;9.962;2023-08-01T06:07:15;17.50;99.90
6307;DHT22;3186;54.062;9.962;2023-08-01T06:09:41;17.40;99.90
6307;DHT22;3186;54.062;9.962;2023-08-01T06:12:07;17.40;99.90
6307;DHT22;3186;54.062;9.962;2023-08-01T06:14:33;17.40;99.90
6307;DHT22;3186;54.062;9.962;2023-08-01T06:16:59;17.40;99.90
6307;DHT22;3186;54.062;9.962;2023-08-01T06:19:24;17.50;99.90
6307;DHT22;3186;54.062;9.962;2023-08-01T06:21:50;17.50;99.90
6307;DHT22;3186;54.062;9.962;2023-08-01T06:24:16;17.60;99.90
6307;DHT22;3186;54.062;9.962;2023-08-01T06:26:42;17.60;99.90
6307;DHT22;3186;54.062;9.962;2023-08-01T06:29:08;17.60;99.90
6307;DHT22;3186;54.062;9.962;2023-08-01T06:31:34;17.60;99.90
6307;DHT22;3186;54.062;9.962;2023-08-01T06:34:00;17.60;99.90
6307;DHT22;3186;54.062;9.962;2023-08-01T06:36:26;17.70;99.90
6307;DHT22;3186;54.062;9.962;2023-08-01T06:38:51;17.70;99.90
6307;DHT22;3186;54.062;9.962;2023-08-01T06:41:17;17.80;99.90
6307;DHT22;3186;54.062;9.962;2023-08-01T06:43:43;17.80;99.90
6307;DHT22;3186;54.062;9.962;2023-08-01T06:46:09;17.70;99.90
6307;DHT22;3186;54.062;9.962;2023-08-01T06:48:35;17.70;99.90
6307;DHT22;3186;54.062;9.962;2023-08-01T06:51:01;17.60;99.90
6307;DHT22;3186;54.062;9.962;2023-08-01T06:53:30;17.70;99.90
6307;DHT22;3186;54.062;9.962;2023-08-01T06:55:56;17.70;99.90
6307;DHT22;3186;54.062;9.962;2023-08-01T06:58:22;17.80;99.90
6307;DHT22;3186;54.062;9.962;2023-08-01T07:00:48;17.80;99.90
6307;DHT22;3186;54.062;9.962;2023-08-01T07:03:13;17.80;99.90
6307;DHT22;3186;54.062;9.962;2023-08-01T07:05:39;17.80;99.90
6307;DHT22;3186;54.062;9.962;2023-08-01T07:08:05;17.80;99.90
6307;DHT22;3186;54.062;9.962;2023-08-01T07:10:34;17.70;99.90
6307;DHT22;3186;54.062;9.962;2023-08-01T07:13:00;17.90;99.90
6307;DHT22;3186;54.062;9.962;2023-08-01T07:15:32;17.90;99.90
6307;DHT22;3186;54.062;9.962;2023-08-01T07:17:58;17.90;99.90
6307;DHT22;3186;54.062;9.962;2023-08-01T07:20:24;18.00;99.90
6307;DHT22;3186;54.062;9.962;2023-08-01T07:22:50;17.90;99.90
6307;DHT22;3186;54.062;9.962;2023-08-01T07:25:16;18.00;99.90
6307;DHT22;3186;54.062;9.962;2023-08-01T07:27:42;18.00;99.90
6307;DHT22;3186;54.062;9.962;2023-08-01T07:30:09;18.00;99.90
6307;DHT22;3186;54.062;9.962;2023-08-01T07:32:36;18.00;99.90
6307;DHT22;3186;54.062;9.962;2023-08-01T07:35:04;17.80;99.90
6307;DHT22;3186;54.062;9.962;2023-08-01T07:37:32;17.80;99.90
6307;DHT22;3186;54.062;9.962;2023-08-01T07:39:58;17.70;99.90
6307;DHT22;3186;54.062;9.962;2023-08-01T07:42:27;17.90;99.90
6307;DHT22;3186;54.062;9.962;2023-08-01T07:44:53;17.80;99.90
6307;DHT22;3186;54.062;9.962;2023-08-01T07:47:19;17.80;99.90
6307;DHT22;3186;54.062;9.962;2023-08-01T07:49:45;17.90;99.90
6307;DHT22;3186;54.062;9.962;2023-08-01T07:52:11;17.80;99.90
6307;DHT22;3186;54.062;9.962;2023-08-01T07:54:36;17.90;99.90
6307;DHT22;3186;54.062;9.962;2023-08-01T07:57:03;17.90;99.90
6307;DHT22;3186;54.062;9.962;2023-08-01T07:59:29;17.90;99.90
6307;DHT22;3186;54.062;9.962;2023-08-01T08:01:54;18.00;99.90
6307;DHT22;3186;54.062;9.962;2023-08-01T08:04:20;18.00;99.90
6307;DHT22;3186;54.062;9.962;2023-08-01T08:06:46;18.00;99.90
6307;DHT22;3186;54.062;9.962;2023-08-01T08:09:12;18.00;99.90
6307;DHT22;3186;54.062;9.962;2023-08-01T08:11:38;18.00;99.90
6307;DHT22;3186;54.062;9.962;2023-08-01T08:14:04;18.20;99.90
6307;DHT22;3186;54.062;9.962;2023-08-01T08:16:30;18.10;99.90
6307;DHT22;3186;54.062;9.962;2023-08-01T08:18:56;18.20;99.90
6307;DHT22;3186;54.062;9.962;2023-08-01T08:21:21;18.40;99.90
6307;DHT22;3186;54.062;9.962;2023-08-01T08:23:47;18.50;99.90
6307;DHT22;3186;54.062;9.962;2023-08-01T08:26:13;18.60;99.90
6307;DHT22;3186;54.062;9.962;2023-08-01T08:28:39;18.70;99.90
6307;DHT22;3186;54.062;9.962;2023-08-01T08:31:07;19.00;99.90
6307;DHT22;3186;54.062;9.962;2023-08-01T08:33:33;19.20;99.90
6307;DHT22;3186;54.062;9.962;2023-08-01T08:35:59;19.50;99.90
6307;DHT22;3186;54.062;9.962;2023-08-01T08:38:25;19.50;99.90
6307;DHT22;3186;54.062;9.962;2023-08-01T08:43:26;19.40;99.90
6307;DHT22;3186;54.062;9.962;2023-08-01T08:45:56;19.40;99.90
6307;DHT22;3186;54.062;9.962;2023-08-01T08:48:26;19.80;99.90
6307;DHT22;3186;54.062;9.962;2023-08-01T08:50:52;19.90;99.90
6307;DHT22;3186;54.062;9.962;2023-08-01T08:53:19;19.90;99.90
6307;DHT22;3186;54.062;9.962;2023-08-01T08:55:47;19.90;99.90
6307;DHT22;3186;54.062;9.962;2023-08-01T08:58:13;20.10;99.90
6307;DHT22;3186;54.062;9.962;2023-08-01T09:00:39;20.00;99.90
6307;DHT22;3186;54.062;9.962;2023-08-01T09:03:05;19.90;99.90
6307;DHT22;3186;54.062;9.962;2023-08-01T09:05:37;20.10;99.90
6307;DHT22;3186;54.062;9.962;2023-08-01T09:08:09;20.30;99.90
6307;DHT22;3186;54.062;9.962;2023-08-01T09:10:37;20.50;99.90
6307;DHT22;3186;54.062;9.962;2023-08-01T09:13:03;20.80;99.90
6307;DHT22;3186;54.062;9.962;2023-08-01T09:15:29;21.00;99.90
6307;DHT22;3186;54.062;9.962;2023-08-01T09:17:55;21.00;99.90
6307;DHT22;3186;54.062;9.962;2023-08-01T09:20:27;20.70;99.90
6307;DHT22;3186;54.062;9.962;2023-08-01T09:22:53;20.90;99.90
6307;DHT22;3186;54.062;9.962;2023-08-01T09:25:19;20.80;99.90
6307;DHT22;3186;54.062;9.962;2023-08-01T09:27:45;20.90;99.90
6307;DHT22;3186;54.062;9.962;2023-08-01T09:30:12;21.00;99.90
6307;DHT22;3186;54.062;9.962;2023-08-01T09:32:50;21.20;99.90
6307;DHT22;3186;54.062;9.962;2023-08-01T09:35:16;21.40;99.90
6307;DHT22;3186;54.062;9.962;2023-08-01T09:37:43;21.70;99.90
6307;DHT22;3186;54.062;9.962;2023-08-01T09:40:09;21.40;99.90
6307;DHT22;3186;54.062;9.962;2023-08-01T09:45:15;21.40;99.90
6307;DHT22;3186;54.062;9.962;2023-08-01T09:47:43;21.70;99.90
6307;DHT22;3186;54.062;9.962;2023-08-01T09:50:10;22.00;99.90
6307;DHT22;3186;54.062;9.962;2023-08-01T09:52:36;22.10;99.90
6307;DHT22;3186;54.062;9.962;2023-08-01T09:55:02;21.80;99.90
6307;DHT22;3186;54.062;9.962;2023-08-01T09:57:29;21.70;99.90
6307;DHT22;3186;54.062;9.962;2023-08-01T09:59:59;21.90;99.90
6307;DHT22;3186;54.062;9.962;2023-08-01T10:02:26;21.60;99.90
6307;DHT22;3186;54.062;9.962;2023-08-01T10:04:57;21.70;99.90
6307;DHT22;3186;54.062;9.962;2023-08-01T10:07:28;21.50;99.90
6307;DHT22;3186;54.062;9.962;2023-08-01T10:09:58;21.60;99.90
6307;DHT22;3186;54.062;9.962;2023-08-01T10:12:26;21.50;99.90
6307;DHT22;3186;54.062;9.962;2023-08-01T10:14:52;21.50;99.90
6307;DHT22;3186;54.062;9.962;2023-08-01T10:17:19;21.20;99.90
6307;DHT22;3186;54.062;9.962;2023-08-01T10:19:49;21.20;99.90
6307;DHT22;3186;54.062;9.962;2023-08-01T10:22:16;21.40;99.90
6307;DHT22;3186;54.062;9.962;2023-08-01T10:24:43;21.50;99.90
6307;DHT22;3186;54.062;9.962;2023-08-01T10:27:19;21.40;99.90
6307;DHT22;3186;54.062;9.962;2023-08-01T10:29:45;21.40;99.90
6307;DHT22;3186;54.062;9.962;2023-08-01T10:32:37;21.50;99.90
6307;DHT22;3186;54.062;9.962;2023-08-01T10:35:03;21.50;99.90
6307;DHT22;3186;54.062;9.962;2023-08-01T10:37:46;21.40;99.90
6307;DHT22;3186;54.062;9.962;2023-08-01T10:40:14;21.40;99.90
6307;DHT22;3186;54.062;9.962;2023-08-01T10:42:42;21.30;99.90
6307;DHT22;3186;54.062;9.962;2023-08-01T10:45:20;21.30;99.90
6307;DHT22;3186;54.062;9.962;2023-08-01T10:47:48;21.40;99.90
6307;DHT22;3186;54.062;9.962;2023-08-01T10:50:14;21.30;99.90
6307;DHT22;3186;54.062;9.962;2023-08-01T10:52:41;21.20;99.90
6307;DHT22;3186;54.062;9.962;2023-08-01T10:55:07;21.20;99.90
6307;DHT22;3186;54.062;9.962;2023-08-01T10:57:39;21.00;99.90
6307;DHT22;3186;54.062;9.962;2023-08-01T11:00:16;21.00;99.90
6307;DHT22;3186;54.062;9.962;2023-08-01T11:02:49;21.10;99.90
6307;DHT22;3186;54.062;9.962;2023-08-01T11:05:16;21.00;99.90
6307;DHT22;3186;54.062;9.962;2023-08-01T11:07:41;21.10;99.90
6307;DHT22;3186;54.062;9.962;2023-08-01T11:10:13;21.00;99.90
6307;DHT22;3186;54.062;9.962;2023-08-01T11:12:43;21.00;99.90
6307;DHT22;3186;54.062;9.962;2023-08-01T11:15:11;21.10;99.90
6307;DHT22;3186;54.062;9.962;2023-08-01T11:17:38;21.10;99.90
6307;DHT22;3186;54.062;9.962;2023-08-01T11:20:06;21.10;99.90
6307;DHT22;3186;54.062;9.962;2023-08-01T11:22:33;21.10;99.90
6307;DHT22;3186;54.062;9.962;2023-08-01T11:24:59;21.10;99.90
6307;DHT22;3186;54.062;9.962;2023-08-01T11:27:26;21.10;99.90
6307;DHT22;3186;54.062;9.962;2023-08-01T11:29:52;21.10;99.90
6307;DHT22;3186;54.062;9.962;2023-08-01T11:32:19;21.20;99.90
6307;DHT22;3186;54.062;9.962;2023-08-01T11:34:48;21.10;99.90
6307;DHT22;3186;54.062;9.962;2023-08-01T11:37:17;21.20;99.90
6307;DHT22;3186;54.062;9.962;2023-08-01T11:39:44;21.20;99.90
6307;DHT22;3186;54.062;9.962;2023-08-01T11:42:16;21.10;99.90
6307;DHT22;3186;54.062;9.962;2023-08-01T11:44:43;21.10;99.90
6307;DHT22;3186;54.062;9.962;2023-08-01T11:47:16;21.00;99.90
6307;DHT22;3186;54.062;9.962;2023-08-01T11:49:47;21.10;99.90
6307;DHT22;3186;54.062;9.962;2023-08-01T11:54:49;21.10;99.90
6307;DHT22;3186;54.062;9.962;2023-08-01T11:57:15;21.20;99.90
6307;DHT22;3186;54.062;9.962;2023-08-01T11:59:54;21.30;99.90
6307;DHT22;3186;54.062;9.962;2023-08-01T12:02:29;21.20;99.90
6307;DHT22;3186;54.062;9.962;2023-08-01T12:04:55;21.20;99.90
6307;DHT22;3186;54.062;9.962;2023-08-01T12:07:25;21.20;99.90
6307;DHT22;3186;54.062;9.962;2023-08-01T12:09:58;21.50;99.90
6307;DHT22;3186;54.062;9.962;2023-08-01T12:12:28;21.70;99.90
6307;DHT22;3186;54.062;9.962;2023-08-01T12:14:55;21.80;99.90
6307;DHT22;3186;54.062;9.962;2023-08-01T12:17:23;21.90;99.90
6307;DHT22;3186;54.062;9.962;2023-08-01T12:19:49;22.00;99.90
6307;DHT22;3186;54.062;9.962;2023-08-01T12:22:14;22.50;99.90
6307;DHT22;3186;54.062;9.962;2023-08-01T12:24:41;22.50;99.90
6307;DHT22;3186;54.062;9.962;2023-08-01T12:27:10;22.60;99.90
6307;DHT22;3186;54.062;9.962;2023-08-01T12:29:36;22.70;99.90
6307;DHT22;3186;54.062;9.962;2023-08-01T12:32:03;22.80;99.90
6307;DHT22;3186;54.062;9.962;2023-08-01T12:34:29;22.90;99.90
6307;DHT22;3186;54.062;9.962;2023-08-01T12:36:54;23.30;99.90
6307;DHT22;3186;54.062;9.962;2023-08-01T12:39:20;23.50;99.90
6307;DHT22;3186;54.062;9.962;2023-08-01T12:41:46;23.40;99.90
6307;DHT22;3186;54.062;9.962;2023-08-01T12:44:12;23.30;99.90
6307;DHT22;3186;54.062;9.962;2023-08-01T12:46:41;23.70;99.90
6307;DHT22;3186;54.062;9.962;2023-08-01T12:49:07;23.70;99.90
6307;DHT22;3186;54.062;9.962;2023-08-01T12:51:33;23.90;99.90
6307;DHT22;3186;54.062;9.962;2023-08-01T12:53:58;24.00;99.90
6307;DHT22;3186;54.062;9.962;2023-08-01T12:56:24;24.10;99.90
6307;DHT22;3186;54.062;9.962;2023-08-01T12:58:50;24.30;99.90
6307;DHT22;3186;54.062;9.962;2023-08-01T13:01:16;24.10;99.90
6307;DHT22;3186;54.062;9.962;2023-08-01T13:03:41;24.10;99.90
6307;DHT22;3186;54.062;9.962;2023-08-01T13:06:10;24.20;99.90
6307;DHT22;3186;54.062;9.962;2023-08-01T13:08:36;24.30;99.90
6307;DHT22;3186;54.062;9.962;2023-08-01T13:11:11;24.30;99.90
6307;DHT22;3186;54.062;9.962;2023-08-01T13:13:39;24.50;99.90
6307;DHT22;3186;54.062;9.962;2023-08-01T13:16:05;24.20;99.90
6307;DHT22;3186;54.062;9.962;2023-08-01T13:18:31;24.30;99.90
6307;DHT22;3186;54.062;9.962;2023-08-01T13:20:57;24.50;99.90
6307;DHT22;3186;54.062;9.962;2023-08-01T13:23:25;24.60;99.90
6307;DHT22;3186;54.062;9.962;2023-08-01T13:25:51;24.50;99.90
6307;DHT22;3186;54.062;9.962;2023-08-01T13:28:17;24.40;99.90
6307;DHT22;3186;54.062;9.962;2023-08-01T13:30:43;24.30;99.90
6307;DHT22;3186;54.062;9.962;2023-08-01T13:33:09;24.30;99.90
6307;DHT22;3186;54.062;9.962;2023-08-01T13:35:35;24.30;99.90
6307;DHT22;3186;54.062;9.962;2023-08-01T13:38:01;24.10;99.90
6307;DHT22;3186;54.062;9.962;2023-08-01T13:40:27;24.40;99.90
6307;DHT22;3186;54.062;9.962;2023-08-01T13:42:52;24.40;99.90
6307;DHT22;3186;54.062;9.962;2023-08-01T13:45:18;22.80;99.90
6307;DHT22;3186;54.062;9.962;2023-08-01T13:47:44;24.40;99.90
6307;DHT22;3186;54.062;9.962;2023-08-01T13:50:10;24.40;99.90
6307;DHT22;3186;54.062;9.962;2023-08-01T13:52:39;24.30;99.90
6307;DHT22;3186;54.062;9.962;2023-08-01T13:55:05;24.20;99.90
6307;DHT22;3186;54.062;9.962;2023-08-01T13:57:32;24.10;99.90
6307;DHT22;3186;54.062;9.962;2023-08-01T13:59:58;24.10;99.90
6307;DHT22;3186;54.062;9.962;2023-08-01T14:02:24;24.00;99.90
6307;DHT22;3186;54.062;9.962;2023-08-01T14:04:53;24.00;99.90
6307;DHT22;3186;54.062;9.962;2023-08-01T14:07:19;24.00;99.90
6307;DHT22;3186;54.062;9.962;2023-08-01T14:09:44;24.00;99.90
6307;DHT22;3186;54.062;9.962;2023-08-01T14:12:10;23.90;99.90
6307;DHT22;3186;54.062;9.962;2023-08-01T14:14:36;23.80;99.90
6307;DHT22;3186;54.062;9.962;2023-08-01T14:17:02;23.60;99.90
6307;DHT22;3186;54.062;9.962;2023-08-01T14:19:28;23.90;99.90
6307;DHT22;3186;54.062;9.962;2023-08-01T14:21:56;23.80;99.90
6307;DHT22;3186;54.062;9.962;2023-08-01T14:24:23;23.90;99.90
6307;DHT22;3186;54.062;9.962;2023-08-01T14:26:49;23.90;99.90
6307;DHT22;3186;54.062;9.962;2023-08-01T14:29:17;23.90;99.90
6307;DHT22;3186;54.062;9.962;2023-08-01T14:31:48;24.10;99.90
6307;DHT22;3186;54.062;9.962;2023-08-01T14:34:15;24.10;99.90
6307;DHT22;3186;54.062;9.962;2023-08-01T14:36:41;24.20;99.90
6307;DHT22;3186;54.062;9.962;2023-08-01T14:39:07;24.20;99.90
6307;DHT22;3186;54.062;9.962;2023-08-01T14:41:33;24.30;99.90
6307;DHT22;3186;54.062;9.962;2023-08-01T14:43:59;24.20;99.90
6307;DHT22;3186;54.062;9.962;2023-08-01T14:46:25;24.20;99.90
6307;DHT22;3186;54.062;9.962;2023-08-01T14:48:50;24.00;99.90
6307;DHT22;3186;54.062;9.962;2023-08-01T14:51:16;24.00;99.90
6307;DHT22;3186;54.062;9.962;2023-08-01T14:53:42;24.20;99.90
6307;DHT22;3186;54.062;9.962;2023-08-01T14:56:08;24.20;99.90
6307;DHT22;3186;54.062;9.962;2023-08-01T14:58:34;24.20;99.90
6307;DHT22;3186;54.062;9.962;2023-08-01T15:01:05;24.40;99.90
6307;DHT22;3186;54.062;9.962;2023-08-01T15:03:31;24.60;99.90
6307;DHT22;3186;54.062;9.962;2023-08-01T15:06:05;24.50;99.90
6307;DHT22;3186;54.062;9.962;2023-08-01T15:08:31;24.60;99.90
6307;DHT22;3186;54.062;9.962;2023-08-01T15:10:57;24.40;99.90
6307;DHT22;3186;54.062;9.962;2023-08-01T15:13:23;24.50;99.90
6307;DHT22;3186;54.062;9.962;2023-08-01T15:15:48;24.50;99.90
6307;DHT22;3186;54.062;9.962;2023-08-01T15:18:14;24.60;99.90
6307;DHT22;3186;54.062;9.962;2023-08-01T15:20:40;24.60;99.90
6307;DHT22;3186;54.062;9.962;2023-08-01T15:23:07;24.40;99.90
6307;DHT22;3186;54.062;9.962;2023-08-01T15:25:34;24.50;99.90
6307;DHT22;3186;54.062;9.962;2023-08-01T15:28:00;24.70;99.90
6307;DHT22;3186;54.062;9.962;2023-08-01T15:30:25;24.70;99.90
6307;DHT22;3186;54.062;9.962;2023-08-01T15:32:51;24.60;99.90
6307;DHT22;3186;54.062;9.962;2023-08-01T15:35:17;24.50;99.90
6307;DHT22;3186;54.062;9.962;2023-08-01T15:37:43;24.50;99.90
6307;DHT22;3186;54.062;9.962;2023-08-01T15:40:09;24.50;99.90
6307;DHT22;3186;54.062;9.962;2023-08-01T15:42:35;24.80;99.90
6307;DHT22;3186;54.062;9.962;2023-08-01T15:45:01;24.90;99.90
6307;DHT22;3186;54.062;9.962;2023-08-01T15:47:26;24.90;99.90
6307;DHT22;3186;54.062;9.962;2023-08-01T15:49:52;24.60;99.90
6307;DHT22;3186;54.062;9.962;2023-08-01T15:52:18;24.80;99.90
6307;DHT22;3186;54.062;9.962;2023-08-01T15:54:44;24.80;99.90
6307;DHT22;3186;54.062;9.962;2023-08-01T15:57:09;24.70;99.90
6307;DHT22;3186;54.062;9.962;2023-08-01T15:59:35;24.50;99.90
6307;DHT22;3186;54.062;9.962;2023-08-01T16:02:01;24.70;99.90
6307;DHT22;3186;54.062;9.962;2023-08-01T16:04:27;24.20;99.90
6307;DHT22;3186;54.062;9.962;2023-08-01T16:06:52;24.40;99.90